sensor_id;sensor_type;location;lat;lon;timestamp;temperature;humidity
71436;SHT31;59251;51.326;12.370;2024-01-15T00:01:18;1.69;86.84
71436;SHT31;59251;51.326;12.370;2024-01-15T00:03:44;1.70;86.70
71436;SHT31;59251;51.326;12.370;2024-01-15T00:06:12;1.69;86.65
71436;SHT31;59251;51.326;12.370;2024-01-15T00:08:39;1.65;86.84
71436;SHT31;59251;51.326;12.370;2024-01-15T00:11:06;1.69;86.62
71436;SHT31;59251;51.326;12.370;2024-01-15T00:13:33;1.60;86.93
71436;SHT31;59251;51.326;12.370;2024-01-15T00:15:59;1.59;86.88
71436;SHT31;59251;51.326;12.370;2024-01-15T00:18:26;1.63;86.69
71436;SHT31;59251;51.326;12.370;2024-01-15T00:20:53;1.62;86.49
71436;SHT31;59251;51.326;12.370;2024-01-15T00:23:21;1.62;86.47
71436;SHT31;59251;51.326;12.370;2024-01-15T00:25:48;1.59;86.52
71436;SHT31;59251;51.326;12.370;2024-01-15T00:28:14;1.58;86.63
71436;SHT31;59251;51.326;12.370;2024-01-15T00:30:41;1.58;86.90
71436;SHT31;59251;51.326;12.370;2024-01-15T00:33:08;1.51;86.87
71436;SHT31;59251;51.326;12.370;2024-01-15T00:35:37;1.52;86.89
71436;SHT31;59251;51.326;12.370;2024-01-15T00:38:04;1.53;86.78
71436;SHT31;59251;51.326;12.370;2024-01-15T00:40:32;1.45;86.88
71436;SHT31;59251;51.326;12.370;2024-01-15T00:42:59;1.52;86.80
71436;SHT31;59251;51.326;12.370;2024-01-15T00:45:25;1.46;86.91
71436;SHT31;59251;51.326;12.370;2024-01-15T00:47:52;1.45;86.76
71436;SHT31;59251;51.326;12.370;2024-01-15T00:50:21;1.49;87.02
71436;SHT31;59251;51.326;12.370;2024-01-15T00:52:48;1.52;86.83
71436;SHT31;59251;51.326;12.370;2024-01-15T00:55:15;1.52;86.71
71436;SHT31;59251;51.326;12.370;2024-01-15T00:57:43;1.55;86.68
71436;SHT31;59251;51.326;12.370;2024-01-15T01:00:10;1.52;86.53
71436;SHT31;59251;51.326;12.370;2024-01-15T01:02:37;1.51;86.75
71436;SHT31;59251;51.326;12.370;2024-01-15T01:05:04;1.53;86.74
71436;SHT31;59251;51.326;12.370;2024-01-15T01:07:31;1.48;86.94
71436;SHT31;59251;51.326;12.370;2024-01-15T01:09:58;1.53;86.83
71436;SHT31;59251;51.326;12.370;2024-01-15T01:12:25;1.48;87.01
71436;SHT31;59251;51.326;12.370;2024-01-15T01:14:53;1.44;86.81
71436;SHT31;59251;51.326;12.370;2024-01-15T01:17:19;1.41;86.94
71436;SHT31;59251;51.326;12.370;2024-01-15T01:19:46;1.53;86.65
71436;SHT31;59251;51.326;12.370;2024-01-15T01:22:13;1.45;86.68
71436;SHT31;59251;51.326;12.370;2024-01-15T01:24:39;1.38;86.83
71436;SHT31;59251;51.326;12.370;2024-01-15T01:27:06;1.41;86.71
71436;SHT31;59251;51.326;12.370;2024-01-15T01:29:33;1.41;86.75
71436;SHT31;59251;51.326;12.370;2024-01-15T01:32:01;1.38;86.84
71436;SHT31;59251;51.326;12.370;2024-01-15T01:34:28;1.39;86.88
71436;SHT31;59251;51.326;12.370;2024-01-15T01:36:55;1.36;86.72
71436;SHT31;59251;51.326;12.370;2024-01-15T01:39:22;1.45;86.71
71436;SHT31;59251;51.326;12.370;2024-01-15T01:41:48;1.42;86.69
71436;SHT31;59251;51.326;12.370;2024-01-15T01:44:15;1.25;86.85
71436;SHT31;59251;51.326;12.370;2024-01-15T01:46:42;1.36;86.76
71436;SHT31;59251;51.326;12.370;2024-01-15T01:49:11;1.32;86.62
71436;SHT31;59251;51.326;12.370;2024-01-15T01:51:38;1.34;86.67
71436;SHT31;59251;51.326;12.370;2024-01-15T01:54:05;1.32;86.75
71436;SHT31;59251;51.326;12.370;2024-01-15T01:56:33;1.17;87.06
71436;SHT31;59251;51.326;12.370;2024-01-15T01:59:01;1.14;86.98
71436;SHT31;59251;51.326;12.370;2024-01-15T02:01:28;1.14;86.94
71436;SHT31;59251;51.326;12.370;2024-01-15T02:03:55;1.14;86.36
71436;SHT31;59251;51.326;12.370;2024-01-15T02:06:24;1.20;86.36
71436;SHT31;59251;51.326;12.370;2024-01-15T02:08:51;1.05;86.53
71436;SHT31;59251;51.326;12.370;2024-01-15T02:11:18;1.08;86.49
71436;SHT31;59251;51.326;12.370;2024-01-15T02:13:45;1.11;86.48
71436;SHT31;59251;51.326;12.370;2024-01-15T02:16:12;0.93;86.76
71436;SHT31;59251;51.326;12.370;2024-01-15T02:18:40;1.04;86.61
71436;SHT31;59251;51.326;12.370;2024-01-15T02:21:07;0.98;86.74
71436;SHT31;59251;51.326;12.370;2024-01-15T02:23:35;1.03;86.79
71436;SHT31;59251;51.326;12.370;2024-01-15T02:26:02;1.08;86.68
71436;SHT31;59251;51.326;12.370;2024-01-15T02:28:29;1.05;86.58
71436;SHT31;59251;51.326;12.370;2024-01-15T02:30:56;1.04;86.58
71436;SHT31;59251;51.326;12.370;2024-01-15T02:33:23;1.03;86.52
71436;SHT31;59251;51.326;12.370;2024-01-15T02:35:50;0.97;86.68
71436;SHT31;59251;51.326;12.370;2024-01-15T02:38:16;1.00;86.56
71436;SHT31;59251;51.326;12.370;2024-01-15T02:40:45;1.03;86.48
71436;SHT31;59251;51.326;12.370;2024-01-15T02:43:11;1.08;86.51
71436;SHT31;59251;51.326;12.370;2024-01-15T02:45:39;1.08;86.42
71436;SHT31;59251;51.326;12.370;2024-01-15T02:48:06;1.08;86.47
71436;SHT31;59251;51.326;12.370;2024-01-15T02:50:32;1.13;86.24
71436;SHT31;59251;51.326;12.370;2024-01-15T02:52:59;1.14;86.00
71436;SHT31;59251;51.326;12.370;2024-01-15T02:55:26;1.15;85.90
71436;SHT31;59251;51.326;12.370;2024-01-15T02:57:56;1.13;86.12
71436;SHT31;59251;51.326;12.370;2024-01-15T03:00:22;1.13;86.19
71436;SHT31;59251;51.326;12.370;2024-01-15T03:02:51;1.03;86.30
71436;SHT31;59251;51.326;12.370;2024-01-15T03:05:17;0.98;86.57
71436;SHT31;59251;51.326;12.370;2024-01-15T03:07:45;0.98;86.57
71436;SHT31;59251;51.326;12.370;2024-01-15T03:10:12;0.93;86.86
71436;SHT31;59251;51.326;12.370;2024-01-15T03:12:39;0.96;86.72
71436;SHT31;59251;51.326;12.370;2024-01-15T03:15:07;0.96;86.76
71436;SHT31;59251;51.326;12.370;2024-01-15T03:17:34;0.87;86.97
71436;SHT31;59251;51.326;12.370;2024-01-15T03:20:01;0.77;87.20
71436;SHT31;59251;51.326;12.370;2024-01-15T03:22:28;0.79;87.45
71436;SHT31;59251;51.326;12.370;2024-01-15T03:24:55;0.69;87.62
71436;SHT31;59251;51.326;12.370;2024-01-15T03:27:21;0.81;87.26
71436;SHT31;59251;51.326;12.370;2024-01-15T03:29:48;0.77;87.37
71436;SHT31;59251;51.326;12.370;2024-01-15T03:32:16;0.80;87.14
71436;SHT31;59251;51.326;12.370;2024-01-15T03:34:45;0.77;87.26
71436;SHT31;59251;51.326;12.370;2024-01-15T03:37:12;0.73;87.40
71436;SHT31;59251;51.326;12.370;2024-01-15T03:39:39;0.69;87.38
71436;SHT31;59251;51.326;12.370;2024-01-15T03:42:06;0.57;87.56
71436;SHT31;59251;51.326;12.370;2024-01-15T03:44:33;0.63;87.63
71436;SHT31;59251;51.326;12.370;2024-01-15T03:47:00;0.63;87.51
71436;SHT31;59251;51.326;12.370;2024-01-15T03:49:28;0.59;87.77
71436;SHT31;59251;51.326;12.370;2024-01-15T03:51:54;0.52;87.80
71436;SHT31;59251;51.326;12.370;2024-01-15T03:54:21;0.56;87.82
71436;SHT31;59251;51.326;12.370;2024-01-15T03:56:48;0.52;87.80
71436;SHT31;59251;51.326;12.370;2024-01-15T03:59:15;0.60;87.71
71436;SHT31;59251;51.326;12.370;2024-01-15T04:01:48;0.63;87.39
71436;SHT31;59251;51.326;12.370;2024-01-15T04:04:15;0.79;87.20
71436;SHT31;59251;51.326;12.370;2024-01-15T04:06:43;0.77;87.23
71436;SHT31;59251;51.326;12.370;2024-01-15T04:09:11;0.83;86.87
71436;SHT31;59251;51.326;12.370;2024-01-15T04:11:38;0.86;86.77
71436;SHT31;59251;51.326;12.370;2024-01-15T04:14:04;0.91;86.85
71436;SHT31;59251;51.326;12.370;2024-01-15T04:16:31;0.97;86.63
71436;SHT31;59251;51.326;12.370;2024-01-15T04:18:58;0.98;86.67
71436;SHT31;59251;51.326;12.370;2024-01-15T04:21:24;0.98;86.78
71436;SHT31;59251;51.326;12.370;2024-01-15T04:23:52;1.01;86.81
71436;SHT31;59251;51.326;12.370;2024-01-15T04:26:19;0.88;86.87
71436;SHT31;59251;51.326;12.370;2024-01-15T04:28:46;0.87;86.90
71436;SHT31;59251;51.326;12.370;2024-01-15T04:31:21;0.76;87.04
71436;SHT31;59251;51.326;12.370;2024-01-15T04:33:47;0.75;87.05
71436;SHT31;59251;51.326;12.370;2024-01-15T04:36:14;0.65;87.15
71436;SHT31;59251;51.326;12.370;2024-01-15T04:38:41;0.67;87.19
71436;SHT31;59251;51.326;12.370;2024-01-15T04:41:11;0.72;87.10
71436;SHT31;59251;51.326;12.370;2024-01-15T04:43:38;0.63;87.22
71436;SHT31;59251;51.326;12.370;2024-01-15T04:46:05;0.62;87.25
71436;SHT31;59251;51.326;12.370;2024-01-15T04:48:32;0.62;87.29
71436;SHT31;59251;51.326;12.370;2024-01-15T04:50:59;0.62;87.29
71436;SHT31;59251;51.326;12.370;2024-01-15T04:53:26;0.59;87.22
71436;SHT31;59251;51.326;12.370;2024-01-15T04:55:52;0.77;86.63
71436;SHT31;59251;51.326;12.370;2024-01-15T04:58:21;0.77;86.24
71436;SHT31;59251;51.326;12.370;2024-01-15T05:00:50;0.81;86.21
71436;SHT31;59251;51.326;12.370;2024-01-15T05:03:17;0.80;86.12
71436;SHT31;59251;51.326;12.370;2024-01-15T05:05:44;0.91;85.58
71436;SHT31;59251;51.326;12.370;2024-01-15T05:08:11;0.81;85.74
71436;SHT31;59251;51.326;12.370;2024-01-15T05:10:37;0.90;85.40
71436;SHT31;59251;51.326;12.370;2024-01-15T05:13:04;0.98;84.84
71436;SHT31;59251;51.326;12.370;2024-01-15T05:15:32;1.00;84.54
71436;SHT31;59251;51.326;12.370;2024-01-15T05:17:59;0.94;84.44
71436;SHT31;59251;51.326;12.370;2024-01-15T05:20:25;0.94;84.58
71436;SHT31;59251;51.326;12.370;2024-01-15T05:22:52;1.03;84.53
71436;SHT31;59251;51.326;12.370;2024-01-15T05:25:19;1.01;84.44
71436;SHT31;59251;51.326;12.370;2024-01-15T05:27:46;1.03;84.47
71436;SHT31;59251;51.326;12.370;2024-01-15T05:30:13;1.00;84.36
71436;SHT31;59251;51.326;12.370;2024-01-15T05:32:41;1.00;84.63
71436;SHT31;59251;51.326;12.370;2024-01-15T05:35:08;0.90;85.03
71436;SHT31;59251;51.326;12.370;2024-01-15T05:37:35;0.84;85.17
71436;SHT31;59251;51.326;12.370;2024-01-15T05:40:01;0.73;85.49
71436;SHT31;59251;51.326;12.370;2024-01-15T05:42:29;0.69;85.59
71436;SHT31;59251;51.326;12.370;2024-01-15T05:44:57;0.83;85.21
71436;SHT31;59251;51.326;12.370;2024-01-15T05:47:27;0.90;85.08
71436;SHT31;59251;51.326;12.370;2024-01-15T05:49:56;0.88;85.16
71436;SHT31;59251;51.326;12.370;2024-01-15T05:52:23;0.88;85.36
71436;SHT31;59251;51.326;12.370;2024-01-15T05:54:50;0.87;85.40
71436;SHT31;59251;51.326;12.370;2024-01-15T05:57:16;0.90;85.07
71436;SHT31;59251;51.326;12.370;2024-01-15T05:59:44;0.96;84.87
71436;SHT31;59251;51.326;12.370;2024-01-15T06:02:11;1.00;84.85
71436;SHT31;59251;51.326;12.370;2024-01-15T06:04:37;0.83;85.25
71436;SHT31;59251;51.326;12.370;2024-01-15T06:07:06;0.90;85.14
71436;SHT31;59251;51.326;12.370;2024-01-15T06:09:32;0.86;85.00
71436;SHT31;59251;51.326;12.370;2024-01-15T06:11:59;0.87;84.87
71436;SHT31;59251;51.326;12.370;2024-01-15T06:14:26;0.88;84.81
71436;SHT31;59251;51.326;12.370;2024-01-15T06:16:53;0.93;84.76
71436;SHT31;59251;51.326;12.370;2024-01-15T06:19:19;0.93;84.60
71436;SHT31;59251;51.326;12.370;2024-01-15T06:21:46;0.91;84.78
71436;SHT31;59251;51.326;12.370;2024-01-15T06:24:14;0.94;84.56
71436;SHT31;59251;51.326;12.370;2024-01-15T06:26:43;0.96;84.48
71436;SHT31;59251;51.326;12.370;2024-01-15T06:29:10;0.96;84.69
71436;SHT31;59251;51.326;12.370;2024-01-15T06:31:36;1.01;84.38
71436;SHT31;59251;51.326;12.370;2024-01-15T06:34:03;1.04;84.32
71436;SHT31;59251;51.326;12.370;2024-01-15T06:36:30;1.00;84.34
71436;SHT31;59251;51.326;12.370;2024-01-15T06:38:56;1.04;84.16
71436;SHT31;59251;51.326;12.370;2024-01-15T06:41:25;1.07;83.98
71436;SHT31;59251;51.326;12.370;2024-01-15T06:43:51;1.00;84.05
71436;SHT31;59251;51.326;12.370;2024-01-15T06:46:20;1.07;83.89
71436;SHT31;59251;51.326;12.370;2024-01-15T06:48:47;1.01;83.90
71436;SHT31;59251;51.326;12.370;2024-01-15T06:51:15;1.04;84.11
71436;SHT31;59251;51.326;12.370;2024-01-15T06:53:42;1.07;84.10
71436;SHT31;59251;51.326;12.370;2024-01-15T06:56:08;1.05;84.19
71436;SHT31;59251;51.326;12.370;2024-01-15T06:58:36;1.13;83.91
71436;SHT31;59251;51.326;12.370;2024-01-15T07:01:03;1.18;83.80
71436;SHT31;59251;51.326;12.370;2024-01-15T07:03:31;1.09;83.91
71436;SHT31;59251;51.326;12.370;2024-01-15T07:05:57;1.18;83.85
71436;SHT31;59251;51.326;12.370;2024-01-15T07:08:24;1.23;83.84
71436;SHT31;59251;51.326;12.370;2024-01-15T07:10:51;1.24;83.77
71436;SHT31;59251;51.326;12.370;2024-01-15T07:13:18;1.11;83.59
71436;SHT31;59251;51.326;12.370;2024-01-15T07:15:46;1.17;83.43
71436;SHT31;59251;51.326;12.370;2024-01-15T07:18:13;1.17;83.61
71436;SHT31;59251;51.326;12.370;2024-01-15T07:20:40;1.14;83.76
71436;SHT31;59251;51.326;12.370;2024-01-15T07:23:06;1.13;83.39
71436;SHT31;59251;51.326;12.370;2024-01-15T07:25:33;1.15;83.66
71436;SHT31;59251;51.326;12.370;2024-01-15T07:28:00;1.09;83.33
71436;SHT31;59251;51.326;12.370;2024-01-15T07:30:27;1.13;83.44
71436;SHT31;59251;51.326;12.370;2024-01-15T07:32:55;1.20;83.16
71436;SHT31;59251;51.326;12.370;2024-01-15T07:35:21;1.24;83.36
71436;SHT31;59251;51.326;12.370;2024-01-15T07:37:48;1.23;83.18
71436;SHT31;59251;51.326;12.370;2024-01-15T07:40:15;1.14;83.36
71436;SHT31;59251;51.326;12.370;2024-01-15T07:42:42;1.21;83.15
71436;SHT31;59251;51.326;12.370;2024-01-15T07:45:09;1.20;83.33
71436;SHT31;59251;51.326;12.370;2024-01-15T07:47:36;1.30;83.02
71436;SHT31;59251;51.326;12.370;2024-01-15T07:50:05;1.27;83.00
71436;SHT31;59251;51.326;12.370;2024-01-15T07:52:32;1.28;82.91
71436;SHT31;59251;51.326;12.370;2024-01-15T07:54:58;1.31;82.86
71436;SHT31;59251;51.326;12.370;2024-01-15T07:57:26;1.17;83.02
71436;SHT31;59251;51.326;12.370;2024-01-15T07:59:53;1.27;84.00
71436;SHT31;59251;51.326;12.370;2024-01-15T08:02:19;1.32;83.70
71436;SHT31;59251;51.326;12.370;2024-01-15T08:04:47;1.41;83.12
71436;SHT31;59251;51.326;12.370;2024-01-15T08:07:15;1.38;82.65
71436;SHT31;59251;51.326;12.370;2024-01-15T08:09:43;1.36;82.53
71436;SHT31;59251;51.326;12.370;2024-01-15T08:12:09;1.42;82.59
71436;SHT31;59251;51.326;12.370;2024-01-15T08:14:37;1.32;82.52
71436;SHT31;59251;51.326;12.370;2024-01-15T08:17:04;1.41;82.67
71436;SHT31;59251;51.326;12.370;2024-01-15T08:19:30;1.34;82.52
71436;SHT31;59251;51.326;12.370;2024-01-15T08:21:57;1.18;83.00
71436;SHT31;59251;51.326;12.370;2024-01-15T08:24:25;1.21;82.74
71436;SHT31;59251;51.326;12.370;2024-01-15T08:26:52;1.20;82.99
71436;SHT31;59251;51.326;12.370;2024-01-15T08:29:19;1.34;82.56
71436;SHT31;59251;51.326;12.370;2024-01-15T08:31:46;1.39;82.43
71436;SHT31;59251;51.326;12.370;2024-01-15T08:34:13;1.38;82.39
71436;SHT31;59251;51.326;12.370;2024-01-15T08:36:39;1.46;82.61
71436;SHT31;59251;51.326;12.370;2024-01-15T08:39:07;1.49;82.37
71436;SHT31;59251;51.326;12.370;2024-01-15T08:41:36;1.53;82.36
71436;SHT31;59251;51.326;12.370;2024-01-15T08:44:02;1.42;82.23
71436;SHT31;59251;51.326;12.370;2024-01-15T08:46:29;1.48;81.99
71436;SHT31;59251;51.326;12.370;2024-01-15T08:48:56;1.53;82.04
71436;SHT31;59251;51.326;12.370;2024-01-15T08:51:23;1.48;82.35
71436;SHT31;59251;51.326;12.370;2024-01-15T08:53:49;1.49;82.30
71436;SHT31;59251;51.326;12.370;2024-01-15T08:56:16;1.55;81.94
71436;SHT31;59251;51.326;12.370;2024-01-15T08:58:44;1.72;81.67
71436;SHT31;59251;51.326;12.370;2024-01-15T09:01:11;2.11;80.41
71436;SHT31;59251;51.326;12.370;2024-01-15T09:03:39;2.24;80.28
71436;SHT31;59251;51.326;12.370;2024-01-15T09:06:07;2.11;79.94
71436;SHT31;59251;51.326;12.370;2024-01-15T09:08:35;2.13;80.33
71436;SHT31;59251;51.326;12.370;2024-01-15T09:11:01;2.07;80.52
71436;SHT31;59251;51.326;12.370;2024-01-15T09:13:29;2.01;80.42
71436;SHT31;59251;51.326;12.370;2024-01-15T09:15:58;2.03;80.73
71436;SHT31;59251;51.326;12.370;2024-01-15T09:18:24;1.92;80.79
71436;SHT31;59251;51.326;12.370;2024-01-15T09:20:51;1.86;81.07
71436;SHT31;59251;51.326;12.370;2024-01-15T09:23:18;1.94;81.07
71436;SHT31;59251;51.326;12.370;2024-01-15T09:25:45;1.97;81.08
71436;SHT31;59251;51.326;12.370;2024-01-15T09:28:11;1.82;81.43
71436;SHT31;59251;51.326;12.370;2024-01-15T09:30:38;1.89;81.36
71436;SHT31;59251;51.326;12.370;2024-01-15T09:33:06;1.97;81.30
71436;SHT31;59251;51.326;12.370;2024-01-15T09:35:33;1.97;81.38
71436;SHT31;59251;51.326;12.370;2024-01-15T09:38:00;1.90;81.36
71436;SHT31;59251;51.326;12.370;2024-01-15T09:40:31;1.93;81.30
71436;SHT31;59251;51.326;12.370;2024-01-15T09:42:59;2.00;81.13
71436;SHT31;59251;51.326;12.370;2024-01-15T09:45:25;2.13;80.97
71436;SHT31;59251;51.326;12.370;2024-01-15T09:47:52;2.06;81.00
71436;SHT31;59251;51.326;12.370;2024-01-15T09:50:21;2.06;80.93
71436;SHT31;59251;51.326;12.370;2024-01-15T09:52:48;2.17;80.64
71436;SHT31;59251;51.326;12.370;2024-01-15T09:55:15;2.30;80.23
71436;SHT31;59251;51.326;12.370;2024-01-15T09:57:43;2.37;80.14
71436;SHT31;59251;51.326;12.370;2024-01-15T10:00:11;2.37;79.90
71436;SHT31;59251;51.326;12.370;2024-01-15T10:02:38;2.25;79.88
71436;SHT31;59251;51.326;12.370;2024-01-15T10:05:05;2.38;79.85
71436;SHT31;59251;51.326;12.370;2024-01-15T10:07:36;2.37;79.75
71436;SHT31;59251;51.326;12.370;2024-01-15T10:10:04;2.34;80.02
71436;SHT31;59251;51.326;12.370;2024-01-15T10:12:31;2.44;79.76
71436;SHT31;59251;51.326;12.370;2024-01-15T10:14:58;2.51;79.76
71436;SHT31;59251;51.326;12.370;2024-01-15T10:17:25;2.63;79.61
71436;SHT31;59251;51.326;12.370;2024-01-15T10:19:52;2.61;79.44
71436;SHT31;59251;51.326;12.370;2024-01-15T10:22:19;2.59;79.67
71436;SHT31;59251;51.326;12.370;2024-01-15T10:24:47;2.59;79.69
71436;SHT31;59251;51.326;12.370;2024-01-15T10:27:14;2.46;79.95
71436;SHT31;59251;51.326;12.370;2024-01-15T10:29:41;2.53;80.02
71436;SHT31;59251;51.326;12.370;2024-01-15T10:32:09;2.48;80.22
71436;SHT31;59251;51.326;12.370;2024-01-15T10:34:37;2.46;80.49
71436;SHT31;59251;51.326;12.370;2024-01-15T10:37:07;2.52;80.37
71436;SHT31;59251;51.326;12.370;2024-01-15T10:39:34;2.40;80.45
71436;SHT31;59251;51.326;12.370;2024-01-15T10:42:03;2.61;80.19
71436;SHT31;59251;51.326;12.370;2024-01-15T10:44:29;2.66;80.07
71436;SHT31;59251;51.326;12.370;2024-01-15T10:46:57;2.56;80.14
71436;SHT31;59251;51.326;12.370;2024-01-15T10:49:24;2.48;80.34
71436;SHT31;59251;51.326;12.370;2024-01-15T10:51:52;2.53;80.36
71436;SHT31;59251;51.326;12.370;2024-01-15T10:54:19;2.62;80.25
71436;SHT31;59251;51.326;12.370;2024-01-15T10:56:49;2.56;80.22
71436;SHT31;59251;51.326;12.370;2024-01-15T10:59:19;2.56;80.36
71436;SHT31;59251;51.326;12.370;2024-01-15T11:01:47;2.58;79.95
71436;SHT31;59251;51.326;12.370;2024-01-15T11:04:14;2.68;79.80
71436;SHT31;59251;51.326;12.370;2024-01-15T11:06:43;2.75;79.56
71436;SHT31;59251;51.326;12.370;2024-01-15T11:09:11;2.71;79.63
71436;SHT31;59251;51.326;12.370;2024-01-15T11:11:41;2.63;80.06
71436;SHT31;59251;51.326;12.370;2024-01-15T11:14:08;2.75;79.69
71436;SHT31;59251;51.326;12.370;2024-01-15T11:16:55;2.88;79.66
71436;SHT31;59251;51.326;12.370;2024-01-15T11:19:24;2.88;79.42
71436;SHT31;59251;51.326;12.370;2024-01-15T11:21:51;2.90;79.31
71436;SHT31;59251;51.326;12.370;2024-01-15T11:24:37;2.92;79.15
71436;SHT31;59251;51.326;12.370;2024-01-15T11:27:05;2.89;79.21
71436;SHT31;59251;51.326;12.370;2024-01-15T11:29:33;2.85;79.37
71436;SHT31;59251;51.326;12.370;2024-01-15T11:32:06;2.85;79.41
71436;SHT31;59251;51.326;12.370;2024-01-15T11:34:53;2.89;79.42
71436;SHT31;59251;51.326;12.370;2024-01-15T11:37:24;2.80;79.76
71436;SHT31;59251;51.326;12.370;2024-01-15T11:39:52;2.75;79.49
71436;SHT31;59251;51.326;12.370;2024-01-15T11:42:20;2.71;79.55
71436;SHT31;59251;51.326;12.370;2024-01-15T11:44:47;2.80;79.52
71436;SHT31;59251;51.326;12.370;2024-01-15T11:47:15;2.79;79.63
71436;SHT31;59251;51.326;12.370;2024-01-15T11:50:00;2.83;79.55
71436;SHT31;59251;51.326;12.370;2024-01-15T11:52:32;2.73;79.60
71436;SHT31;59251;51.326;12.370;2024-01-15T11:55:02;2.88;79.71
71436;SHT31;59251;51.326;12.370;2024-01-15T11:57:41;2.88;79.62
71436;SHT31;59251;51.326;12.370;2024-01-15T12:00:09;2.76;79.74
71436;SHT31;59251;51.326;12.370;2024-01-15T12:02:42;2.86;79.64
71436;SHT31;59251;51.326;12.370;2024-01-15T12:05:10;2.79;79.71
71436;SHT31;59251;51.326;12.370;2024-01-15T12:07:38;2.79;79.79
71436;SHT31;59251;51.326;12.370;2024-01-15T12:10:08;2.82;79.71
71436;SHT31;59251;51.326;12.370;2024-01-15T12:12:47;2.83;79.55
71436;SHT31;59251;51.326;12.370;2024-01-15T12:15:18;2.86;79.55
71436;SHT31;59251;51.326;12.370;2024-01-15T12:17:46;2.90;79.41
71436;SHT31;59251;51.326;12.370;2024-01-15T12:20:13;3.01;79.27
71436;SHT31;59251;51.326;12.370;2024-01-15T12:22:41;2.95;78.95
71436;SHT31;59251;51.326;12.370;2024-01-15T12:25:08;3.01;79.11
71436;SHT31;59251;51.326;12.370;2024-01-15T12:27:35;2.89;79.65
71436;SHT31;59251;51.326;12.370;2024-01-15T12:30:03;2.95;79.33
71436;SHT31;59251;51.326;12.370;2024-01-15T12:32:30;3.00;79.08
71436;SHT31;59251;51.326;12.370;2024-01-15T12:34:58;3.07;79.20
71436;SHT31;59251;51.326;12.370;2024-01-15T12:37:24;3.09;79.01
71436;SHT31;59251;51.326;12.370;2024-01-15T12:39:52;3.14;79.03
71436;SHT31;59251;51.326;12.370;2024-01-15T12:42:20;3.03;79.43
71436;SHT31;59251;51.326;12.370;2024-01-15T12:44:47;3.18;79.04
71436;SHT31;59251;51.326;12.370;2024-01-15T12:47:14;3.13;79.19
71436;SHT31;59251;51.326;12.370;2024-01-15T12:49:46;3.03;79.08
71436;SHT31;59251;51.326;12.370;2024-01-15T12:52:14;3.00;79.06
71436;SHT31;59251;51.326;12.370;2024-01-15T12:54:41;2.96;79.28
71436;SHT31;59251;51.326;12.370;2024-01-15T12:57:08;2.90;79.49
71436;SHT31;59251;51.326;12.370;2024-01-15T12:59:34;2.88;79.55
71436;SHT31;59251;51.326;12.370;2024-01-15T13:02:01;2.93;79.65
71436;SHT31;59251;51.326;12.370;2024-01-15T13:04:28;2.90;79.68
71436;SHT31;59251;51.326;12.370;2024-01-15T13:06:55;2.83;80.00
71436;SHT31;59251;51.326;12.370;2024-01-15T13:09:23;2.90;80.04
71436;SHT31;59251;51.326;12.370;2024-01-15T13:11:50;2.88;80.00
71436;SHT31;59251;51.326;12.370;2024-01-15T13:14:18;2.82;80.11
71436;SHT31;59251;51.326;12.370;2024-01-15T13:16:43;2.90;80.24
71436;SHT31;59251;51.326;12.370;2024-01-15T13:19:10;2.92;80.32
71436;SHT31;59251;51.326;12.370;2024-01-15T13:21:38;2.92;80.53
71436;SHT31;59251;51.326;12.370;2024-01-15T13:24:05;2.92;80.85
71436;SHT31;59251;51.326;12.370;2024-01-15T13:26:34;2.80;81.23
71436;SHT31;59251;51.326;12.370;2024-01-15T13:29:01;2.89;81.41
71436;SHT31;59251;51.326;12.370;2024-01-15T13:31:29;2.86;81.67
71436;SHT31;59251;51.326;12.370;2024-01-15T13:33:55;2.92;81.70
71436;SHT31;59251;51.326;12.370;2024-01-15T13:36:22;2.89;81.77
71436;SHT31;59251;51.326;12.370;2024-01-15T13:38:49;2.92;81.44
71436;SHT31;59251;51.326;12.370;2024-01-15T13:41:17;2.79;81.82
71436;SHT31;59251;51.326;12.370;2024-01-15T13:43:46;2.85;81.91
71436;SHT31;59251;51.326;12.370;2024-01-15T13:46:12;2.93;81.16
71436;SHT31;59251;51.326;12.370;2024-01-15T13:48:39;3.00;80.69
71436;SHT31;59251;51.326;12.370;2024-01-15T13:51:06;2.93;80.71
71436;SHT31;59251;51.326;12.370;2024-01-15T13:53:33;2.95;80.88
71436;SHT31;59251;51.326;12.370;2024-01-15T13:55:59;3.01;80.68
71436;SHT31;59251;51.326;12.370;2024-01-15T13:58:26;2.96;80.58
71436;SHT31;59251;51.326;12.370;2024-01-15T14:00:54;3.03;80.72
71436;SHT31;59251;51.326;12.370;2024-01-15T14:03:21;2.96;80.94
71436;SHT31;59251;51.326;12.370;2024-01-15T14:05:48;2.93;81.03
71436;SHT31;59251;51.326;12.370;2024-01-15T14:08:16;2.99;81.01
71436;SHT31;59251;51.326;12.370;2024-01-15T14:10:43;3.01;80.95
71436;SHT31;59251;51.326;12.370;2024-01-15T14:13:10;3.00;80.66
71436;SHT31;59251;51.326;12.370;2024-01-15T14:15:37;2.79;81.26
71436;SHT31;59251;51.326;12.370;2024-01-15T14:18:05;2.93;80.47
71436;SHT31;59251;51.326;12.370;2024-01-15T14:20:32;2.88;80.72
71436;SHT31;59251;51.326;12.370;2024-01-15T14:22:59;2.80;80.99
71436;SHT31;59251;51.326;12.370;2024-01-15T14:25:26;2.93;80.78
71436;SHT31;59251;51.326;12.370;2024-01-15T14:27:53;2.88;80.95
71436;SHT31;59251;51.326;12.370;2024-01-15T14:30:20;2.85;81.11
71436;SHT31;59251;51.326;12.370;2024-01-15T14:32:47;2.80;81.39
71436;SHT31;59251;51.326;12.370;2024-01-15T14:35:15;2.80;81.32
71436;SHT31;59251;51.326;12.370;2024-01-15T14:37:41;2.75;81.61
71436;SHT31;59251;51.326;12.370;2024-01-15T14:40:09;2.78;81.50
71436;SHT31;59251;51.326;12.370;2024-01-15T14:42:36;2.71;81.61
71436;SHT31;59251;51.326;12.370;2024-01-15T14:45:03;2.76;81.86
71436;SHT31;59251;51.326;12.370;2024-01-15T14:47:37;2.68;82.02
71436;SHT31;59251;51.326;12.370;2024-01-15T14:50:05;2.59;82.38
71436;SHT31;59251;51.326;12.370;2024-01-15T14:52:33;2.46;82.88
71436;SHT31;59251;51.326;12.370;2024-01-15T14:55:00;2.52;82.93
71436;SHT31;59251;51.326;12.370;2024-01-15T14:57:27;2.62;82.70
71436;SHT31;59251;51.326;12.370;2024-01-15T14:59:53;2.51;82.82
71436;SHT31;59251;51.326;12.370;2024-01-15T15:02:20;2.62;82.77
71436;SHT31;59251;51.326;12.370;2024-01-15T15:04:47;2.53;83.07
71436;SHT31;59251;51.326;12.370;2024-01-15T15:07:14;2.59;82.76
71436;SHT31;59251;51.326;12.370;2024-01-15T15:09:42;2.58;82.96
71436;SHT31;59251;51.326;12.370;2024-01-15T15:12:09;2.61;82.90
71436;SHT31;59251;51.326;12.370;2024-01-15T15:14:35;2.58;82.99
71436;SHT31;59251;51.326;12.370;2024-01-15T15:17:04;2.49;83.19
71436;SHT31;59251;51.326;12.370;2024-01-15T15:19:30;2.48;83.29
71436;SHT31;59251;51.326;12.370;2024-01-15T15:21:57;2.49;83.41
71436;SHT31;59251;51.326;12.370;2024-01-15T15:24:24;2.52;83.50
71436;SHT31;59251;51.326;12.370;2024-01-15T15:26:52;2.45;83.66
71436;SHT31;59251;51.326;12.370;2024-01-15T15:29:19;2.44;83.83
71436;SHT31;59251;51.326;12.370;2024-01-15T15:31:45;2.44;83.79